Time;durP1;ratioP1;P1;durP2;ratioP2;P2;SDS_P1;SDS_P2;PMS_P1;PMS_P2;Temp;Humidity;BMP_temperature;BMP_pressure;BME280_temperature;BME280_humidity;BME280_pressure;Samples;Min_cycle;Max_cycle;Signal;HPM_P1;HPM_P2
2022/10/16 00:02:05;;;;;;;;;2.00;1.50;;;;;;;;5017133;28;45424;-76
2022/10/16 00:04:30;;;;;;;;;1.75;0.75;;;;;;;;5002421;28;45538;-75
2022/10/16 00:06:55;;;;;;;;;1.50;1.50;;;;;;;;5007024;28;45465;-76
2022/10/16 00:09:20;;;;;;;;;3.75;1.00;;;;;;;;5003048;28;45318;-74
2022/10/16 00:11:46;;;;;;;;;0.50;0.50;;;;;;;;5003026;28;45303;-73
2022/10/16 00:14:13;;;;;;;;;2.50;1.75;;;;;;;;5016813;28;45413;-74
2022/10/16 00:16:38;;;;;;;;;0.75;0.50;;;;;;;;5010276;28;45574;-72
2022/10/16 00:19:04;;;;;;;;;2.75;0.50;;;;;;;;4997158;28;45369;-75
2022/10/16 00:21:30;;;;;;;;;2.25;1.00;;;;;;;;5000842;28;45384;-73
2022/10/16 00:23:59;;;;;;;;;1.00;1.00;;;;;;;;5015929;28;46409;-77
2022/10/16 00:26:25;;;;;;;;;2.25;2.00;;;;;;;;5017045;28;45461;-75
2022/10/16 00:28:51;;;;;;;;;0.50;0.50;;;;;;;;5016989;28;45243;-75
2022/10/16 00:31:17;;;;;;;;;1.00;1.00;;;;;;;;5017931;28;45229;-75
2022/10/16 00:33:42;;;;;;;;;1.25;0.50;;;;;;;;5018507;28;47440;-75
2022/10/16 00:36:10;;;;;;;;;1.50;1.50;;;;;;;;5018664;28;45171;-73
2022/10/16 00:38:35;;;;;;;;;2.25;0.50;;;;;;;;5016894;28;46761;-76
2022/10/16 00:41:00;;;;;;;;;1.50;0.75;;;;;;;;5018780;28;45304;-77
2022/10/16 00:43:40;;;;;;;;;0.75;0.75;;;;;;;;5018294;28;45374;-76
2022/10/16 00:46:12;;;;;;;;;0.50;0.50;;;;;;;;5017726;28;45395;-76
2022/10/16 00:48:38;;;;;;;;;2.50;1.00;;;;;;;;5016643;28;45298;-77
2022/10/16 00:51:04;;;;;;;;;0.00;0.00;;;;;;;;5018384;28;45304;-79
2022/10/16 00:53:30;;;;;;;;;0.50;0.50;;;;;;;;5016185;28;46613;-75
2022/10/16 00:55:55;;;;;;;;;1.50;1.50;;;;;;;;5018244;28;45606;-75
2022/10/16 00:58:21;;;;;;;;;6.25;4.50;;;;;;;;5017477;28;45363;-78
2022/10/16 01:00:46;;;;;;;;;0.00;0.00;;;;;;;;5018540;28;45455;-72
2022/10/16 01:03:28;;;;;;;;;1.50;1.50;;;;;;;;5018011;28;46700;-80
2022/10/16 01:06:02;;;;;;;;;4.75;3.00;;;;;;;;5015646;28;45427;-83
2022/10/16 01:08:33;;;;;;;;;1.00;1.00;;;;;;;;5018266;28;45446;-75
2022/10/16 01:11:01;;;;;;;;;2.25;2.00;;;;;;;;5017601;28;45449;-79
2022/10/16 01:13:34;;;;;;;;;1.50;1.50;;;;;;;;5017736;28;46526;-80
2022/10/16 01:16:06;;;;;;;;;3.00;3.00;;;;;;;;5017342;28;45296;-78
2022/10/16 01:18:57;;;;;;;;;2.00;2.00;;;;;;;;5015108;28;45550;-75
2022/10/16 01:21:26;;;;;;;;;2.25;2.00;;;;;;;;5017389;28;45476;-77
2022/10/16 01:24:00;;;;;;;;;3.00;2.00;;;;;;;;5015515;28;46465;-81
2022/10/16 01:26:44;;;;;;;;;2.50;2.00;;;;;;;;5018076;28;45247;-79
2022/10/16 01:29:15;;;;;;;;;1.75;1.75;;;;;;;;5017943;28;45282;-80
2022/10/16 01:31:43;;;;;;;;;2.00;2.00;;;;;;;;5017653;28;45338;-80
2022/10/16 01:34:16;;;;;;;;;1.50;1.50;;;;;;;;5016947;28;45804;-84
2022/10/16 01:36:45;;;;;;;;;4.75;2.00;;;;;;;;5016854;28;45528;-81
2022/10/16 01:39:13;;;;;;;;;4.00;2.75;;;;;;;;5017093;28;45567;-78
2022/10/16 01:41:41;;;;;;;;;2.00;2.00;;;;;;;;5015605;28;45222;-78
2022/10/16 01:44:27;;;;;;;;;2.25;2.00;;;;;;;;5013764;28;46228;-84
2022/10/16 01:46:53;;;;;;;;;2.75;1.00;;;;;;;;5017540;28;45401;-77
2022/10/16 01:49:20;;;;;;;;;3.00;1.25;;;;;;;;5017191;28;45304;-77
2022/10/16 01:51:48;;;;;;;;;2.50;2.50;;;;;;;;5017960;28;45293;-78
2022/10/16 01:54:14;;;;;;;;;1.00;1.00;;;;;;;;5017394;28;45225;-80
2022/10/16 01:56:41;;;;;;;;;1.75;1.75;;;;;;;;5016084;28;45448;-78
2022/10/16 01:59:17;;;;;;;;;1.00;1.00;;;;;;;;5016271;28;45507;-75
2022/10/16 02:01:45;;;;;;;;;2.00;2.00;;;;;;;;5004695;28;45626;-80
2022/10/16 02:04:33;;;;;;;;;2.00;2.00;;;;;;;;4999224;28;46210;-76
2022/10/16 02:06:59;;;;;;;;;3.00;3.00;;;;;;;;5015315;28;45395;-79
2022/10/16 02:09:24;;;;;;;;;3.50;2.50;;;;;;;;5017751;28;45486;-82
2022/10/16 02:11:53;;;;;;;;;2.00;2.00;;;;;;;;5015915;28;45401;-79
2022/10/16 02:14:18;;;;;;;;;4.00;4.00;;;;;;;;5017480;28;45395;-74
2022/10/16 02:16:45;;;;;;;;;7.50;2.00;;;;;;;;5017394;28;45303;-81
2022/10/16 02:19:10;;;;;;;;;2.00;2.00;;;;;;;;5016564;28;45245;-81
2022/10/16 02:21:56;;;;;;;;;1.75;1.75;;;;;;;;5016608;28;45190;-80
2022/10/16 02:24:28;;;;;;;;;2.00;2.00;;;;;;;;5017109;28;46124;-80
2022/10/16 02:27:13;;;;;;;;;2.00;2.00;;;;;;;;5015710;28;45447;-78
2022/10/16 02:29:40;;;;;;;;;2.25;2.25;;;;;;;;5015755;28;45343;-79
2022/10/16 02:32:07;;;;;;;;;5.50;2.00;;;;;;;;5015641;28;45309;-77
2022/10/16 02:34:33;;;;;;;;;1.75;1.75;;;;;;;;5016714;28;45482;-81
2022/10/16 02:36:59;;;;;;;;;2.50;2.00;;;;;;;;5014858;28;45334;-75
2022/10/16 02:39:26;;;;;;;;;2.00;2.00;;;;;;;;5017037;28;45343;-73
2022/10/16 02:41:51;;;;;;;;;3.25;2.00;;;;;;;;5016816;28;45458;-80
2022/10/16 02:44:17;;;;;;;;;1.25;1.25;;;;;;;;5019576;28;45611;-78
2022/10/16 02:46:42;;;;;;;;;2.00;2.00;;;;;;;;5019345;28;45528;-75
2022/10/16 02:49:07;;;;;;;;;2.50;2.25;;;;;;;;5019763;28;45404;-75
2022/10/16 02:51:32;;;;;;;;;1.75;1.75;;;;;;;;5020840;28;45424;-79
2022/10/16 02:53:58;;;;;;;;;2.75;2.00;;;;;;;;5018534;28;45376;-81
2022/10/16 02:56:23;;;;;;;;;2.00;2.00;;;;;;;;5019180;28;45425;-75
2022/10/16 02:58:48;;;;;;;;;2.50;2.50;;;;;;;;5019090;28;45721;-76
2022/10/16 03:01:16;;;;;;;;;2.00;1.00;;;;;;;;5017655;28;45384;-74
2022/10/16 03:03:41;;;;;;;;;2.25;1.25;;;;;;;;5019901;28;46572;-68
2022/10/16 03:06:06;;;;;;;;;0.75;0.75;;;;;;;;5019277;28;45434;-68
2022/10/16 03:08:32;;;;;;;;;2.00;2.00;;;;;;;;5018197;28;45294;-68
2022/10/16 03:10:57;;;;;;;;;3.50;2.00;;;;;;;;5018925;28;45507;-77
2022/10/16 03:13:22;;;;;;;;;1.00;1.00;;;;;;;;5019789;28;46586;-76
2022/10/16 03:15:47;;;;;;;;;2.50;2.25;;;;;;;;5019828;28;45353;-69
2022/10/16 03:18:13;;;;;;;;;3.75;2.00;;;;;;;;5017494;28;45547;-68
2022/10/16 03:20:38;;;;;;;;;2.00;2.00;;;;;;;;5020340;28;45361;-69
2022/10/16 03:23:03;;;;;;;;;2.00;2.00;;;;;;;;5019621;28;45371;-72
2022/10/16 03:25:28;;;;;;;;;1.00;1.00;;;;;;;;5017427;28;45224;-76
2022/10/16 03:27:54;;;;;;;;;4.00;2.00;;;;;;;;5020035;28;45520;-71
2022/10/16 03:30:19;;;;;;;;;4.00;2.25;;;;;;;;5018712;28;45515;-73
2022/10/16 03:32:44;;;;;;;;;2.50;2.00;;;;;;;;5019607;28;46260;-71
2022/10/16 03:35:10;;;;;;;;;1.00;1.00;;;;;;;;5017520;28;45318;-70
2022/10/16 03:37:36;;;;;;;;;2.25;2.25;;;;;;;;5018737;28;45538;-71
2022/10/16 03:40:01;;;;;;;;;3.50;2.75;;;;;;;;5019852;28;45376;-71
2022/10/16 03:42:27;;;;;;;;;1.00;1.00;;;;;;;;5017269;28;47486;-70
2022/10/16 03:44:52;;;;;;;;;1.00;1.00;;;;;;;;5019497;28;45368;-70
2022/10/16 03:47:21;;;;;;;;;4.00;2.75;;;;;;;;5019430;28;45339;-70
2022/10/16 03:49:46;;;;;;;;;4.25;3.00;;;;;;;;5018824;28;45450;-70
2022/10/16 03:52:11;;;;;;;;;3.50;2.00;;;;;;;;5018295;28;46154;-70
2022/10/16 03:54:36;;;;;;;;;3.50;3.00;;;;;;;;5017478;28;45439;-71
2022/10/16 03:57:02;;;;;;;;;3.00;3.00;;;;;;;;5019227;28;45317;-70
2022/10/16 03:59:27;;;;;;;;;3.00;3.00;;;;;;;;5018727;28;45562;-70
2022/10/16 04:01:52;;;;;;;;;3.00;3.00;;;;;;;;5019169;28;47440;-71
2022/10/16 04:04:17;;;;;;;;;2.25;2.25;;;;;;;;5017506;28;45147;-71
2022/10/16 04:06:43;;;;;;;;;4.50;3.00;;;;;;;;5017363;28;46175;-70
2022/10/16 04:09:08;;;;;;;;;2.00;2.00;;;;;;;;5019608;28;45448;-70
2022/10/16 04:11:33;;;;;;;;;2.75;2.00;;;;;;;;5018252;28;46527;-71
2022/10/16 04:13:58;;;;;;;;;4.00;3.00;;;;;;;;5017777;28;45419;-70
2022/10/16 04:16:24;;;;;;;;;2.00;2.00;;;;;;;;5018349;28;45187;-72
2022/10/16 04:18:49;;;;;;;;;2.00;2.00;;;;;;;;5019297;28;45425;-71
2022/10/16 04:21:14;;;;;;;;;3.25;2.50;;;;;;;;5019030;28;46198;-70
2022/10/16 04:23:39;;;;;;;;;2.25;2.25;;;;;;;;5017482;28;45612;-71
2022/10/16 04:26:04;;;;;;;;;1.00;1.00;;;;;;;;5018283;28;45415;-69
2022/10/16 04:28:30;;;;;;;;;8.00;3.50;;;;;;;;5017476;28;45207;-71
2022/10/16 04:30:55;;;;;;;;;3.00;3.00;;;;;;;;5018897;28;46513;-69
2022/10/16 04:33:20;;;;;;;;;3.00;3.00;;;;;;;;5017963;28;45369;-70
2022/10/16 04:35:45;;;;;;;;;4.00;4.00;;;;;;;;5018959;28;45257;-76
2022/10/16 04:38:10;;;;;;;;;2.00;2.00;;;;;;;;5016632;28;45713;-77
2022/10/16 04:40:36;;;;;;;;;5.00;2.25;;;;;;;;5017404;28;47447;-79
2022/10/16 04:43:02;;;;;;;;;2.00;1.00;;;;;;;;5018536;28;45259;-80
2022/10/16 04:45:27;;;;;;;;;2.00;2.00;;;;;;;;5016959;28;45336;-78
2022/10/16 04:47:52;;;;;;;;;2.00;2.00;;;;;;;;5018802;28;45498;-74
2022/10/16 04:50:18;;;;;;;;;3.75;1.00;;;;;;;;5018580;28;47309;-75
2022/10/16 04:52:43;;;;;;;;;2.00;2.00;;;;;;;;5017801;28;45265;-77
2022/10/16 04:55:08;;;;;;;;;3.00;1.00;;;;;;;;5018705;28;45376;-77
2022/10/16 04:57:33;;;;;;;;;2.00;2.00;;;;;;;;5015863;28;45600;-81
2022/10/16 04:59:59;;;;;;;;;3.50;3.50;;;;;;;;5018133;28;47116;-77
2022/10/16 05:02:24;;;;;;;;;20.33;20.33;;;;;;;;5018410;28;45518;-79
2022/10/16 05:04:49;;;;;;;;;6.75;6.00;;;;;;;;5017640;28;45312;-75
2022/10/16 05:07:14;;;;;;;;;3.00;3.00;;;;;;;;5017810;28;45265;-72
2022/10/16 05:09:40;;;;;;;;;4.00;2.75;;;;;;;;5017335;28;46987;-74
2022/10/16 05:12:05;;;;;;;;;4.25;3.00;;;;;;;;5015995;28;45486;-71
2022/10/16 05:14:30;;;;;;;;;2.75;2.00;;;;;;;;5018350;28;45281;-75
2022/10/16 05:16:56;;;;;;;;;3.00;3.00;;;;;;;;5017393;28;45234;-73
2022/10/16 05:19:21;;;;;;;;;2.75;2.75;;;;;;;;5017893;28;46302;-75
2022/10/16 05:21:46;;;;;;;;;2.25;2.00;;;;;;;;5018177;28;45243;-72
2022/10/16 05:24:11;;;;;;;;;6.50;2.50;;;;;;;;5017939;28;45564;-70
2022/10/16 05:26:36;;;;;;;;;1.50;1.25;;;;;;;;5018373;28;45560;-70
2022/10/16 05:29:02;;;;;;;;;5.50;4.00;;;;;;;;5015598;28;46274;-70
2022/10/16 05:31:28;;;;;;;;;6.00;3.00;;;;;;;;5017850;28;45443;-70
2022/10/16 05:33:57;;;;;;;;;2.00;2.00;;;;;;;;5018017;28;45325;-77
2022/10/16 05:36:22;;;;;;;;;2.75;2.75;;;;;;;;5017993;28;45318;-70
2022/10/16 05:38:50;;;;;;;;;2.25;2.25;;;;;;;;5015195;28;46202;-70
2022/10/16 05:41:19;;;;;;;;;3.00;2.00;;;;;;;;5016963;28;45418;-69
2022/10/16 05:43:44;;;;;;;;;3.50;3.50;;;;;;;;5017384;28;45602;-68
2022/10/16 05:46:10;;;;;;;;;2.00;2.00;;;;;;;;5016421;28;45374;-67
2022/10/16 05:48:35;;;;;;;;;3.00;2.00;;;;;;;;5017557;28;46433;-68
2022/10/16 05:51:02;;;;;;;;;2.75;2.75;;;;;;;;5016775;28;45419;-68
2022/10/16 05:53:28;;;;;;;;;2.25;2.25;;;;;;;;5017723;28;45352;-68
2022/10/16 05:55:54;;;;;;;;;4.00;4.00;;;;;;;;5017838;28;45354;-69
2022/10/16 05:58:19;;;;;;;;;2.75;2.75;;;;;;;;5017380;28;46731;-68
2022/10/16 06:00:44;;;;;;;;;3.25;3.25;;;;;;;;5014559;28;45779;-68
2022/10/16 06:03:10;;;;;;;;;3.50;3.00;;;;;;;;5017555;28;45430;-68
2022/10/16 06:05:35;;;;;;;;;5.00;3.00;;;;;;;;5016643;28;45524;-68
2022/10/16 06:08:00;;;;;;;;;4.50;4.50;;;;;;;;5017309;28;46162;-69
2022/10/16 06:10:25;;;;;;;;;4.75;4.75;;;;;;;;5014511;28;45387;-68
2022/10/16 06:12:50;;;;;;;;;7.25;6.00;;;;;;;;5017465;28;45478;-67
2022/10/16 06:15:16;;;;;;;;;4.75;4.75;;;;;;;;5017456;28;45514;-67
2022/10/16 06:17:41;;;;;;;;;6.00;4.50;;;;;;;;5018852;28;46497;-68
2022/10/16 06:20:06;;;;;;;;;4.50;4.50;;;;;;;;5020283;28;45235;-68
2022/10/16 06:22:31;;;;;;;;;8.50;6.75;;;;;;;;5020668;28;45330;-68
2022/10/16 06:24:57;;;;;;;;;4.25;4.00;;;;;;;;5018805;28;46178;-69
2022/10/16 06:27:22;;;;;;;;;5.50;5.00;;;;;;;;5020689;28;46743;-68
2022/10/16 06:29:47;;;;;;;;;6.50;5.00;;;;;;;;5020473;28;45428;-67
2022/10/16 06:32:12;;;;;;;;;4.25;3.00;;;;;;;;5020122;28;47250;-67
2022/10/16 06:34:39;;;;;;;;;7.75;5.25;;;;;;;;5021026;28;45309;-67
2022/10/16 06:37:05;;;;;;;;;6.25;4.00;;;;;;;;5019776;28;47105;-69
2022/10/16 06:39:30;;;;;;;;;6.00;3.75;;;;;;;;5020649;28;45209;-68
2022/10/16 06:41:55;;;;;;;;;2.50;2.50;;;;;;;;5018735;28;45212;-70
2022/10/16 06:44:20;;;;;;;;;5.25;5.00;;;;;;;;5018476;28;45236;-71
2022/10/16 06:46:45;;;;;;;;;6.50;4.75;;;;;;;;5019555;28;46545;-69
2022/10/16 06:49:11;;;;;;;;;4.00;4.00;;;;;;;;5020409;28;45404;-69
2022/10/16 06:51:40;;;;;;;;;6.25;3.25;;;;;;;;5020646;28;45381;-72
2022/10/16 06:54:05;;;;;;;;;2.50;2.50;;;;;;;;5020732;28;45478;-71
2022/10/16 06:56:31;;;;;;;;;4.25;3.75;;;;;;;;5018077;28;45250;-73
2022/10/16 06:58:56;;;;;;;;;3.50;3.00;;;;;;;;5009094;28;45402;-70
2022/10/16 07:01:23;;;;;;;;;3.25;3.25;;;;;;;;5010612;28;45302;-72
2022/10/16 07:03:48;;;;;;;;;6.00;3.50;;;;;;;;5012074;28;45304;-72
2022/10/16 07:06:14;;;;;;;;;3.00;3.00;;;;;;;;5008414;28;47067;-71
2022/10/16 07:08:41;;;;;;;;;4.75;3.00;;;;;;;;5011785;28;45250;-70
2022/10/16 07:11:09;;;;;;;;;2.00;2.00;;;;;;;;5010763;28;45437;-70
2022/10/16 07:13:34;;;;;;;;;7.50;6.00;;;;;;;;5009764;28;45362;-72
2022/10/16 07:16:06;;;;;;;;;4.00;4.00;;;;;;;;5012809;28;45386;-72
2022/10/16 07:18:32;;;;;;;;;3.25;3.00;;;;;;;;5008408;28;45400;-72
2022/10/16 07:21:03;;;;;;;;;5.25;2.75;;;;;;;;5011683;28;45652;-75
2022/10/16 07:23:28;;;;;;;;;3.00;3.00;;;;;;;;5010017;28;45258;-72
2022/10/16 07:25:54;;;;;;;;;2.00;2.00;;;;;;;;5008121;28;46174;-76
2022/10/16 07:28:19;;;;;;;;;5.00;3.50;;;;;;;;5008631;28;45342;-74
2022/10/16 07:30:44;;;;;;;;;3.00;3.00;;;;;;;;5009494;28;45430;-75
2022/10/16 07:33:10;;;;;;;;;2.00;2.00;;;;;;;;5031927;28;45519;-75
2022/10/16 07:35:35;;;;;;;;;5.25;3.75;;;;;;;;5007798;28;45601;-70
2022/10/16 07:38:00;;;;;;;;;4.00;2.75;;;;;;;;5017511;28;45419;-72
2022/10/16 07:40:26;;;;;;;;;2.75;2.00;;;;;;;;5018645;28;45269;-73
2022/10/16 07:42:52;;;;;;;;;3.25;3.25;;;;;;;;5019896;28;45420;-74
2022/10/16 07:45:17;;;;;;;;;3.00;3.00;;;;;;;;5018048;28;45466;-71
2022/10/16 07:47:42;;;;;;;;;3.00;3.00;;;;;;;;5017276;28;46201;-72
2022/10/16 07:50:07;;;;;;;;;3.00;2.00;;;;;;;;5018751;28;45313;-70
2022/10/16 07:52:33;;;;;;;;;2.75;1.75;;;;;;;;5018057;28;45464;-73
2022/10/16 07:54:58;;;;;;;;;1.00;0.50;;;;;;;;5017601;28;47381;-74
2022/10/16 07:57:23;;;;;;;;;3.00;3.00;;;;;;;;5019339;28;45345;-79
2022/10/16 07:59:48;;;;;;;;;2.00;1.50;;;;;;;;5017373;28;45297;-79
2022/10/16 08:02:13;;;;;;;;;3.75;3.75;;;;;;;;5018439;28;45332;-78
2022/10/16 08:04:39;;;;;;;;;1.50;1.50;;;;;;;;5016222;28;46378;-78
2022/10/16 08:07:04;;;;;;;;;4.25;3.25;;;;;;;;5018220;28;45352;-80
2022/10/16 08:09:29;;;;;;;;;4.00;3.00;;;;;;;;5015132;28;46309;-72
2022/10/16 08:11:54;;;;;;;;;1.75;1.75;;;;;;;;5017336;28;45363;-82
2022/10/16 08:14:20;;;;;;;;;18.33;16.33;;;;;;;;5018628;28;47381;-75
2022/10/16 08:16:45;;;;;;;;;6.00;6.00;;;;;;;;5015009;28;45498;-69
2022/10/16 08:19:10;;;;;;;;;2.75;2.75;;;;;;;;5019021;28;45381;-73
2022/10/16 08:21:35;;;;;;;;;2.50;1.00;;;;;;;;5017443;28;45509;-75
2022/10/16 08:24:01;;;;;;;;;2.50;1.50;;;;;;;;5017868;28;45350;-72
2022/10/16 08:26:26;;;;;;;;;2.00;2.00;;;;;;;;5018643;28;45298;-77
2022/10/16 08:28:52;;;;;;;;;3.00;2.00;;;;;;;;5015332;28;45543;-76
2022/10/16 08:31:17;;;;;;;;;3.50;1.00;;;;;;;;5016303;28;45409;-70
2022/10/16 08:33:43;;;;;;;;;2.50;1.50;;;;;;;;5018006;28;45542;-70
2022/10/16 08:36:10;;;;;;;;;2.25;2.25;;;;;;;;5018098;28;45222;-76
2022/10/16 08:38:35;;;;;;;;;2.00;1.00;;;;;;;;5016464;28;45459;-78
2022/10/16 08:41:09;;;;;;;;;3.00;1.00;;;;;;;;5017223;28;45320;-77
2022/10/16 08:43:50;;;;;;;;;3.00;2.00;;;;;;;;5018655;28;46755;-77
2022/10/16 08:46:29;;;;;;;;;1.50;1.50;;;;;;;;5018627;28;45440;-71
2022/10/16 08:48:56;;;;;;;;;0.75;0.75;;;;;;;;5017742;28;45368;-80
2022/10/16 08:51:24;;;;;;;;;2.50;1.00;;;;;;;;5016952;28;45850;-81
2022/10/16 08:53:52;;;;;;;;;1.50;1.00;;;;;;;;5018197;28;46140;-80
2022/10/16 08:56:18;;;;;;;;;2.25;1.00;;;;;;;;5015444;28;45310;-79
2022/10/16 08:58:44;;;;;;;;;4.50;1.00;;;;;;;;5018350;28;45327;-72
2022/10/16 09:01:14;;;;;;;;;1.00;1.00;;;;;;;;5007563;28;45323;-80
2022/10/16 09:03:58;;;;;;;;;2.75;2.25;;;;;;;;5018300;28;45681;-76
2022/10/16 09:06:23;;;;;;;;;0.00;0.00;;;;;;;;5007322;28;45421;-79
2022/10/16 09:09:04;;;;;;;;;0.25;0.00;;;;;;;;4998779;28;45360;-74
2022/10/16 09:11:35;;;;;;;;;4.50;2.00;;;;;;;;4998375;28;45429;-76
2022/10/16 09:14:13;;;;;;;;;1.50;1.50;;;;;;;;5010356;28;46574;-77
2022/10/16 09:16:43;;;;;;;;;3.00;1.25;;;;;;;;5012315;28;45967;-75
2022/10/16 09:19:18;;;;;;;;;1.00;1.00;;;;;;;;5017966;28;45289;-72
2022/10/16 09:21:44;;;;;;;;;29.33;27.00;;;;;;;;5015518;28;45547;-79
2022/10/16 09:24:14;;;;;;;;;4.50;3.00;;;;;;;;4997728;28;46263;-82
2022/10/16 09:26:39;;;;;;;;;7.00;5.00;;;;;;;;4998208;28;45252;-77
2022/10/16 09:29:04;;;;;;;;;4.00;4.00;;;;;;;;4997032;28;45326;-76
2022/10/16 09:31:29;;;;;;;;;2.25;1.50;;;;;;;;4998678;28;45539;-77
2022/10/16 09:33:58;;;;;;;;;1.50;1.25;;;;;;;;5013880;28;45477;-81
2022/10/16 09:36:23;;;;;;;;;1.00;1.00;;;;;;;;5017674;28;45421;-76
2022/10/16 09:38:49;;;;;;;;;5.00;3.75;;;;;;;;5017790;28;45277;-74
2022/10/16 09:41:18;;;;;;;;;3.00;3.00;;;;;;;;5017871;28;45408;-83
2022/10/16 09:43:46;;;;;;;;;4.25;4.25;;;;;;;;5017142;28;47536;-81
2022/10/16 09:46:27;;;;;;;;;5.50;4.00;;;;;;;;5017394;28;45408;-78
2022/10/16 09:48:54;;;;;;;;;2.00;2.00;;;;;;;;5016289;28;45408;-80
2022/10/16 09:51:23;;;;;;;;;2.00;2.00;;;;;;;;5017671;28;45453;-82
2022/10/16 09:53:48;;;;;;;;;3.00;2.50;;;;;;;;5017920;28;46195;-82
2022/10/16 09:56:25;;;;;;;;;3.00;3.00;;;;;;;;5017335;28;45491;-78
2022/10/16 09:58:52;;;;;;;;;0.50;0.50;;;;;;;;5017542;28;45796;-78
2022/10/16 10:01:18;;;;;;;;;1.00;1.00;;;;;;;;5017513;28;45225;-78
2022/10/16 10:03:44;;;;;;;;;2.25;1.00;;;;;;;;5017060;28;46547;-76
2022/10/16 10:06:18;;;;;;;;;2.00;1.00;;;;;;;;5015880;28;46655;-74
2022/10/16 10:09:02;;;;;;;;;0.00;0.00;;;;;;;;5017508;28;45312;-80
2022/10/16 10:11:37;;;;;;;;;2.00;2.00;;;;;;;;5015782;28;45939;-75
2022/10/16 10:14:06;;;;;;;;;2.50;1.00;;;;;;;;5017251;28;47447;-80
2022/10/16 10:16:31;;;;;;;;;9.00;7.33;;;;;;;;5016608;28;45434;-79
2022/10/16 10:19:00;;;;;;;;;3.00;3.00;;;;;;;;5017799;28;45304;-80
2022/10/16 10:21:25;;;;;;;;;1.00;1.00;;;;;;;;5016679;28;45482;-82
2022/10/16 10:23:57;;;;;;;;;4.25;1.25;;;;;;;;5017251;28;45420;-82
2022/10/16 10:26:25;;;;;;;;;1.00;1.00;;;;;;;;5017334;28;45448;-82
2022/10/16 10:29:07;;;;;;;;;2.00;2.00;;;;;;;;5017326;28;45373;-77
2022/10/16 10:31:45;;;;;;;;;1.50;1.50;;;;;;;;5016434;28;45494;-81
2022/10/16 10:34:36;;;;;;;;;1.00;1.00;;;;;;;;5013504;28;48544;-78
2022/10/16 10:37:13;;;;;;;;;5.75;5.00;;;;;;;;5016990;28;45456;-79
2022/10/16 10:39:42;;;;;;;;;2.50;2.50;;;;;;;;5016910;28;45383;-83
2022/10/16 10:42:19;;;;;;;;;2.00;2.00;;;;;;;;5012196;28;45389;-79
2022/10/16 10:44:45;;;;;;;;;4.50;1.25;;;;;;;;5016079;28;45502;-81
2022/10/16 10:47:24;;;;;;;;;2.00;2.00;;;;;;;;5015417;28;45377;-81
2022/10/16 10:50:08;;;;;;;;;4.00;2.00;;;;;;;;5017252;28;45326;-82
2022/10/16 10:52:57;;;;;;;;;2.00;0.75;;;;;;;;5016393;28;45364;-81
2022/10/16 10:55:22;;;;;;;;;1.00;1.00;;;;;;;;5015852;28;45766;-82
2022/10/16 10:57:47;;;;;;;;;2.00;1.00;;;;;;;;5015607;28;45309;-80
2022/10/16 11:00:18;;;;;;;;;2.00;1.00;;;;;;;;5016968;28;45531;-78
2022/10/16 11:02:43;;;;;;;;;1.75;0.75;;;;;;;;5017011;28;45422;-79
2022/10/16 11:05:19;;;;;;;;;1.50;1.50;;;;;;;;5017770;28;46744;-85
2022/10/16 11:07:49;;;;;;;;;2.00;2.00;;;;;;;;5010937;28;45323;-79
2022/10/16 11:10:18;;;;;;;;;1.50;1.00;;;;;;;;5000114;28;45273;-82
2022/10/16 11:12:50;;;;;;;;;2.00;2.00;;;;;;;;5018320;28;45389;-78
2022/10/16 11:15:19;;;;;;;;;1.00;1.00;;;;;;;;5018448;28;47252;-75
2022/10/16 11:17:47;;;;;;;;;3.00;1.75;;;;;;;;5018951;28;45484;-79
2022/10/16 11:20:21;;;;;;;;;3.00;2.00;;;;;;;;5018960;28;45253;-77
2022/10/16 11:22:50;;;;;;;;;4.75;3.00;;;;;;;;5019958;28;45241;-79
2022/10/16 11:25:15;;;;;;;;;3.00;1.00;;;;;;;;5019669;28;46068;-79
2022/10/16 11:27:47;;;;;;;;;1.25;1.25;;;;;;;;5019185;28;45253;-81
2022/10/16 11:30:18;;;;;;;;;2.00;2.00;;;;;;;;5017528;28;45294;-76
2022/10/16 11:32:52;;;;;;;;;1.50;1.00;;;;;;;;5018888;28;45348;-74
2022/10/16 11:35:22;;;;;;;;;2.00;2.00;;;;;;;;5019014;28;46319;-75
2022/10/16 11:37:49;;;;;;;;;0.25;0.25;;;;;;;;5018384;28;45468;-74
2022/10/16 11:40:41;;;;;;;;;1.00;1.00;;;;;;;;5019919;28;45325;-74
2022/10/16 11:43:26;;;;;;;;;1.50;1.00;;;;;;;;5016305;28;45459;-80
2022/10/16 11:45:55;;;;;;;;;0.25;0.25;;;;;;;;5019148;28;47158;-79
2022/10/16 11:48:36;;;;;;;;;0.25;0.25;;;;;;;;5016983;28;45466;-77
2022/10/16 11:51:07;;;;;;;;;1.50;1.50;;;;;;;;5019558;28;45290;-76
2022/10/16 11:53:42;;;;;;;;;2.00;0.50;;;;;;;;5017755;28;45562;-79
2022/10/16 11:56:07;;;;;;;;;7.75;6.00;;;;;;;;5016395;28;46086;-74
2022/10/16 11:58:35;;;;;;;;;3.00;1.25;;;;;;;;5017479;28;45374;-77
2022/10/16 12:01:10;;;;;;;;;2.25;0.75;;;;;;;;5010083;28;45349;-76
2022/10/16 12:03:42;;;;;;;;;1.50;1.50;;;;;;;;5016630;28;45541;-73
2022/10/16 12:06:30;;;;;;;;;0.00;0.00;;;;;;;;5018243;28;46807;-75
2022/10/16 12:08:56;;;;;;;;;4.00;1.00;;;;;;;;5018160;28;45453;-75
2022/10/16 12:11:24;;;;;;;;;1.00;1.00;;;;;;;;5019043;28;45357;-76
2022/10/16 12:13:50;;;;;;;;;0.75;0.75;;;;;;;;5019610;28;45460;-76
2022/10/16 12:16:15;;;;;;;;;2.75;2.50;;;;;;;;5018715;28;45943;-76
2022/10/16 12:18:44;;;;;;;;;1.75;1.75;;;;;;;;5016274;28;46184;-76
2022/10/16 12:21:13;;;;;;;;;0.00;0.00;;;;;;;;5018238;28;46930;-76
2022/10/16 12:23:58;;;;;;;;;4.00;4.00;;;;;;;;5015247;28;45598;-76
2022/10/16 12:26:25;;;;;;;;;0.00;0.00;;;;;;;;5013962;28;45508;-76
2022/10/16 12:28:51;;;;;;;;;2.25;0.00;;;;;;;;5018192;28;45711;-76
2022/10/16 12:31:17;;;;;;;;;5.25;4.25;;;;;;;;5015753;28;45252;-77
2022/10/16 12:33:52;;;;;;;;;1.75;0.75;;;;;;;;5009435;28;45542;-73
2022/10/16 12:36:34;;;;;;;;;0.00;0.00;;;;;;;;5017616;28;47334;-73
2022/10/16 12:39:00;;;;;;;;;0.00;0.00;;;;;;;;5015578;28;45174;-74
2022/10/16 12:41:25;;;;;;;;;3.00;1.00;;;;;;;;5015764;28;45293;-74
2022/10/16 12:43:50;;;;;;;;;1.25;0.00;;;;;;;;5018210;28;45231;-74
2022/10/16 12:46:15;;;;;;;;;0.50;0.00;;;;;;;;5015314;28;47180;-75
2022/10/16 12:48:43;;;;;;;;;1.25;0.00;;;;;;;;5011952;28;45472;-76
2022/10/16 12:51:11;;;;;;;;;8.00;8.00;;;;;;;;5004478;28;45348;-73
2022/10/16 12:53:36;;;;;;;;;4.00;2.50;;;;;;;;5011442;28;45595;-74
2022/10/16 12:56:07;;;;;;;;;4.00;0.00;;;;;;;;5008014;28;46452;-73
2022/10/16 12:58:35;;;;;;;;;2.50;0.50;;;;;;;;5012210;28;45464;-74
2022/10/16 13:01:08;;;;;;;;;0.00;0.00;;;;;;;;5013312;28;45500;-76
2022/10/16 13:03:36;;;;;;;;;0.00;0.00;;;;;;;;5012331;28;45595;-75
2022/10/16 13:06:04;;;;;;;;;0.75;0.00;;;;;;;;5013541;28;47468;-79
2022/10/16 13:08:38;;;;;;;;;0.00;0.00;;;;;;;;5010697;28;45260;-79
2022/10/16 13:11:06;;;;;;;;;0.25;0.25;;;;;;;;5008699;28;45376;-78
2022/10/16 13:13:47;;;;;;;;;0.00;0.00;;;;;;;;5012627;28;46043;-74
2022/10/16 13:16:19;;;;;;;;;0.00;0.00;;;;;;;;5011402;28;46138;-75
2022/10/16 13:18:53;;;;;;;;;3.00;1.75;;;;;;;;5013203;28;45404;-75
2022/10/16 13:21:32;;;;;;;;;1.00;1.00;;;;;;;;5012167;28;45870;-75
2022/10/16 13:24:29;;;;;;;;;0.00;0.00;;;;;;;;5013865;28;45534;-76
2022/10/16 13:27:00;;;;;;;;;0.50;0.00;;;;;;;;4987119;28;45654;-75
2022/10/16 13:29:30;;;;;;;;;6.00;5.00;;;;;;;;4986087;28;45435;-76
2022/10/16 13:31:55;;;;;;;;;0.75;0.25;;;;;;;;4989141;28;45560;-76
2022/10/16 13:34:22;;;;;;;;;6.50;1.00;;;;;;;;4991271;28;45460;-71
2022/10/16 13:36:50;;;;;;;;;1.00;1.00;;;;;;;;4988577;28;45671;-76
2022/10/16 13:39:17;;;;;;;;;0.50;0.50;;;;;;;;4990197;28;45477;-75
2022/10/16 13:41:42;;;;;;;;;1.00;0.00;;;;;;;;4985521;28;45493;-72
2022/10/16 13:44:14;;;;;;;;;1.25;0.00;;;;;;;;4987158;28;45442;-75
2022/10/16 13:46:39;;;;;;;;;2.75;1.00;;;;;;;;4985708;28;45457;-76
2022/10/16 13:49:06;;;;;;;;;0.75;0.75;;;;;;;;4985881;28;45560;-77
2022/10/16 13:51:32;;;;;;;;;3.00;3.00;;;;;;;;4990922;28;45529;-78
2022/10/16 13:53:58;;;;;;;;;2.00;1.00;;;;;;;;4991188;28;45461;-76
2022/10/16 13:56:27;;;;;;;;;1.00;1.00;;;;;;;;4990558;28;47262;-78
2022/10/16 13:59:22;;;;;;;;;2.00;2.00;;;;;;;;4988317;28;45652;-78
2022/10/16 14:01:47;;;;;;;;;3.00;3.00;;;;;;;;4995105;28;45523;-78
2022/10/16 14:04:13;;;;;;;;;3.00;1.00;;;;;;;;5005273;28;45594;-77
2022/10/16 14:06:43;;;;;;;;;4.00;2.50;;;;;;;;5021875;28;46474;-80
2022/10/16 14:09:25;;;;;;;;;1.00;1.00;;;;;;;;5005005;28;45389;-77
2022/10/16 14:12:01;;;;;;;;;2.75;1.50;;;;;;;;5007220;28;45380;-79
2022/10/16 14:14:31;;;;;;;;;2.00;2.00;;;;;;;;5008007;28;45428;-80
2022/10/16 14:16:56;;;;;;;;;2.00;2.00;;;;;;;;5010775;28;45509;-78
2022/10/16 14:19:23;;;;;;;;;2.75;2.75;;;;;;;;5010556;28;45441;-72
2022/10/16 14:21:50;;;;;;;;;7.00;5.33;;;;;;;;5003459;28;45578;-74
2022/10/16 14:24:31;;;;;;;;;2.25;2.00;;;;;;;;5000005;28;45409;-75
2022/10/16 14:26:57;;;;;;;;;6.50;3.25;;;;;;;;5009220;28;45751;-73
2022/10/16 14:29:23;;;;;;;;;3.00;1.50;;;;;;;;5006299;28;45445;-74
2022/10/16 14:31:54;;;;;;;;;1.25;1.25;;;;;;;;5006928;28;45455;-74
2022/10/16 14:34:27;;;;;;;;;0.00;0.00;;;;;;;;5008247;28;45349;-72
2022/10/16 14:36:52;;;;;;;;;1.00;1.00;;;;;;;;5004288;28;45763;-74
2022/10/16 14:39:19;;;;;;;;;1.75;1.00;;;;;;;;5006315;28;45473;-73
2022/10/16 14:41:46;;;;;;;;;2.50;2.50;;;;;;;;5006387;28;45555;-72
2022/10/16 14:44:12;;;;;;;;;2.00;0.50;;;;;;;;5010725;28;45380;-71
2022/10/16 14:46:38;;;;;;;;;1.00;1.00;;;;;;;;5011650;28;46086;-71
2022/10/16 14:49:13;;;;;;;;;2.50;2.00;;;;;;;;5008960;28;45433;-73
2022/10/16 14:51:41;;;;;;;;;4.75;1.00;;;;;;;;5010652;28;45463;-74